Date,TemperatureHighF,TemperatureAvgF,TemperatureLowF,DewpointHighF,DewpointAvgF,DewpointLowF,HumidityHigh,HumidityAvg,HumidityLow,PressureMaxIn,PressureMinIn,WindSpeedMaxMPH,WindSpeedAvgMPH,GustSpeedMaxMPH,PrecipitationSumIn
2013-4-1,68.9,55.9,44.2,52.6,41.9,32.0,99,65,27,29.95,29.78,26,4,30,0.01
2013-4-2,67.6,51.3,36.8,35.1,23.7,9.2,82,41,12,30.10,29.94,22,3,25,0.00
2013-4-3,58.8,51.1,43.5,33.3,25.1,18.0,62,37,24,30.18,30.03,14,1,14,0.00
2013-4-4,48.1,40.4,35.9,38.5,35.3,29.0,96,83,48,30.17,29.94,18,2,24,0.40
2013-4-5,66.1,47.8,38.2,46.3,40.6,35.2,99,79,43,30.05,29.88,12,1,12,0.00
2013-4-6,70.6,52.5,35.5,38.2,33.2,28.9,92,54,22,30.18,30.03,17,2,17,0.00
2013-4-7,71.5,53.3,36.0,45.1,39.6,32.5,96,63,33,30.21,30.05,15,1,16,0.00
2013-4-8,75.8,60.0,47.9,53.4,47.5,41.2,91,66,37,30.11,30.00,16,2,16,0.00
2013-4-9,80.8,63.0,48.5,58.4,50.9,46.0,99,69,35,30.14,30.03,18,1,18,0.00
2013-4-10,84.7,66.0,51.2,59.1,52.4,49.2,99,67,32,30.06,29.87,14,1,23,0.00
2013-4-11,75.1,63.8,52.5,64.4,56.5,50.0,97,79,51,29.91,29.60,18,2,20,0.00
2013-4-12,71.1,61.6,46.4,60.5,48.6,32.3,99,69,24,29.83,29.57,22,3,24,0.05
2013-4-13,77.1,61.3,47.0,39.0,32.5,21.6,68,38,16,29.97,29.80,23,5,25,0.00
2013-4-14,61.4,49.7,42.1,51.1,40.2,30.4,96,72,39,30.03,29.92,9,1,10,0.17
2013-4-15,51.8,51.8,51.8,50.7,50.7,50.7,96,96,96,29.92,29.92,4,1,7,0.00
2013-4-16,63.5,61.5,61.0,57.2,56.4,55.6,86,83,79,30.16,30.14,3,0,3,0.01
2013-4-17,83.0,65.6,55.2,65.2,58.2,52.6,98,80,45,30.19,30.01,14,1,15,0.52
2013-4-18,76.6,65.3,58.5,62.3,59.0,57.1,99,82,52,30.07,29.88,13,1,16,0.00
2013-4-19,63.8,57.7,43.3,63.2,54.7,33.5,98,90,69,29.92,29.68,23,3,31,1.00
2013-4-20,68.1,49.6,31.8,36.3,29.0,22.0,87,50,20,30.23,29.91,25,2,25,0.00
2013-4-21,66.9,50.7,35.3,38.5,33.2,27.2,89,56,27,30.36,30.22,17,2,19,0.00
2013-4-22,69.3,52.9,40.9,40.7,37.3,33.3,83,58,27,30.34,30.14,14,1,15,0.00
2013-4-23,73.6,53.8,35.9,46.8,38.5,31.0,92,60,31,30.23,30.06,11,1,11,0.00
2013-4-24,69.6,56.8,45.2,58.2,51.1,41.2,96,83,53,30.09,30.00,17,1,18,0.08
2013-4-25,75.5,59.2,41.5,56.2,33.9,10.4,96,48,9,30.24,30.02,20,4,20,0.01
2013-4-26,72.3,57.1,42.9,44.7,33.7,22.3,68,43,23,30.37,30.22,12,2,16,0.00
2013-4-27,58.0,52.9,50.3,53.3,49.5,43.0,97,89,64,30.31,30.18,9,1,12,0.40
2013-4-28,53.5,51.1,48.5,53.5,50.6,48.0,100,98,94,30.21,30.00,13,0,13,3.15
2013-4-29,72.9,59.1,50.6,59.2,52.8,47.5,100,83,46,30.02,29.86,15,1,16,0.02
2013-4-30,78.8,63.5,48.6,59.4,52.8,47.0,100,73,38,30.03,29.91,11,1,12,0.00